KGNV

Gainesville Regional Airport

Gainesville, Florida, USA
METAR KGNV 170653Z 00000KT 10SM CLR 07/06 A3030 RMK AO2 SLP260 T00720061
Observed Flight Rules
Dec-17 @ 06:53 UTC (an hour ago) Visual Flight Rules
Wind Visibility Clouds
Calm 10 miles
  • Clear skies
Temperatures Readings
Current 7°C / 45°F
Dewpoint 6°C / 43°F
Humidity 93%
Altimeter 30.3" Hg
Pressure 1026 hPa
Elevation 45
METAR KGNV 170653Z 00000KT 10SM CLR 07/06 A3030 RMK AO2 SLP260 T00720061
Observed Flight Rules
Dec-17 @ 06:53 UTC
(an hour ago)
VFR
Wind Visibility
Calm 10 miles
Clouds
  • Clear skies
Temperature Dewpoint
7°C / 45°F 6°C / 43°F
Humidity Altimeter Pressure
93% 30.3" Hg 1026 hPa